Danbury, New Hampshire
Current Conditions -  °F | °C
As of 7:35 PM on Friday 21 Nov 2014 (Local Time) from K1P1 Reporting Station
Clear Clear  
Wind Chill: -11°   Ceiling: Unl
Heat Index: -5°   Visibility: 10mi
Dew Point: -12°   Wind: 10mph
Humidity: 56%   Direction: 280°W
Pressure: 30.31"   Gusts: NA
Location:  43.53°N, 71.86°W
Report Text: K1P1 220035Z AUTO 28009KT 10SM CLR M05/M12 A3031 RMK AO2 T10471122
Loading
Personal Weather Stations






























Interactive Weather Map New forecast layout! Learn more

10-Day Weather Forecast

Advertisements
Track Severe Weather on mobile